createdAt,value
2018-11-26T00:00:50.394Z,6.26
2018-11-26T00:03:20.021Z,6.35
2018-11-26T00:05:49.951Z,6.43
2018-11-26T00:08:28.821Z,6.46
2018-11-26T00:11:28.967Z,6.42
2018-11-26T00:13:57.869Z,6.33
2018-11-26T00:16:27.486Z,6.26
2018-11-26T00:18:57.379Z,6.31
2018-11-26T00:21:26.424Z,6.40
2018-11-26T00:23:55.926Z,6.37
2018-11-26T00:26:25.044Z,6.26
2018-11-26T00:28:54.501Z,6.32
2018-11-26T00:31:23.914Z,6.33
2018-11-26T00:33:53.294Z,6.39
2018-11-26T00:36:22.334Z,6.49
2018-11-26T00:38:52.536Z,6.43
2018-11-26T00:41:21.904Z,6.41
2018-11-26T00:43:51.247Z,6.43
2018-11-26T00:46:20.829Z,6.34
2018-11-26T00:48:50.330Z,6.35
2018-11-26T00:51:19.484Z,6.42
2018-11-26T00:53:48.476Z,6.20
2018-11-26T00:56:17.192Z,6.29
2018-11-26T00:58:46.271Z,6.19
2018-11-26T01:01:15.373Z,6.02
2018-11-26T01:03:44.093Z,6.01
2018-11-26T01:06:13.135Z,5.83
2018-11-26T01:08:41.896Z,5.77
2018-11-26T01:11:10.800Z,5.74
2018-11-26T01:13:39.882Z,5.74
2018-11-26T01:16:08.899Z,5.85
2018-11-26T01:18:38.211Z,5.86
2018-11-26T01:21:07.709Z,5.75
2018-11-26T01:23:36.406Z,5.74
2018-11-26T01:26:05.523Z,5.86
2018-11-26T01:28:34.614Z,5.91
2018-11-26T01:31:04.054Z,5.96
2018-11-26T01:33:34.593Z,6.14
2018-11-26T01:36:04.021Z,5.92
2018-11-26T01:38:33.019Z,6.01
2018-11-26T01:41:02.129Z,5.93
2018-11-26T01:43:31.353Z,6.06
2018-11-26T01:46:01.449Z,6.06
2018-11-26T01:48:31.472Z,6.10
2018-11-26T01:51:01.113Z,6.09
2018-11-26T01:53:30.376Z,6.09
2018-11-26T01:55:59.517Z,6.08
2018-11-26T01:58:29.020Z,6.03
2018-11-26T02:00:57.722Z,6.21
2018-11-26T02:03:27.243Z,6.01
2018-11-26T02:05:56.058Z,6.12
2018-11-26T02:08:25.746Z,6.08
2018-11-26T02:10:54.963Z,6.25
2018-11-26T02:13:23.660Z,6.10
2018-11-26T02:15:52.390Z,6.10
2018-11-26T02:18:21.353Z,5.99
2018-11-26T02:20:50.390Z,5.90
2018-11-26T02:23:19.178Z,6.02
2018-11-26T02:25:47.896Z,6.05
2018-11-26T02:28:17.150Z,5.97
2018-11-26T02:30:45.859Z,5.99
2018-11-26T02:33:15.599Z,6.04
2018-11-26T02:35:44.688Z,5.98
2018-11-26T02:38:13.758Z,5.72
2018-11-26T02:40:42.780Z,5.54
2018-11-26T02:43:12.152Z,5.58
2018-11-26T02:45:40.874Z,5.60
2018-11-26T02:48:10.545Z,5.71
2018-11-26T02:50:39.929Z,5.70
2018-11-26T02:53:09.320Z,5.71
2018-11-26T02:55:38.981Z,5.75
2018-11-26T02:58:08.022Z,5.90
2018-11-26T03:00:37.440Z,5.86
2018-11-26T03:03:07.067Z,5.94
2018-11-26T03:05:36.148Z,5.88
2018-11-26T03:08:05.297Z,5.90
2018-11-26T03:10:34.791Z,5.87
2018-11-26T03:13:03.861Z,5.81
2018-11-26T03:15:32.828Z,5.82
2018-11-26T03:18:02.223Z,5.84
2018-11-26T03:20:31.227Z,5.80
2018-11-26T03:23:00.235Z,5.75
2018-11-26T03:25:28.949Z,5.63
2018-11-26T03:27:58.021Z,5.78
2018-11-26T03:30:27.032Z,5.82
2018-11-26T03:32:56.007Z,5.84
2018-11-26T03:35:25.016Z,5.65
2018-11-26T03:37:53.996Z,5.50
2018-11-26T03:40:23.371Z,5.42
2018-11-26T03:42:52.193Z,5.28
2018-11-26T03:45:21.667Z,5.24
2018-11-26T03:47:54.638Z,5.21
2018-11-26T03:50:24.228Z,5.14
2018-11-26T03:52:53.731Z,5.00
2018-11-26T03:55:23.827Z,4.96
2018-11-26T03:57:52.850Z,4.83
2018-11-26T04:00:21.919Z,4.75
2018-11-26T04:02:51.502Z,4.69
2018-11-26T04:05:20.374Z,4.72
2018-11-26T04:07:49.726Z,4.65
2018-11-26T04:10:18.430Z,4.69
2018-11-26T04:12:48.667Z,4.76
2018-11-26T04:15:18.170Z,4.90
2018-11-26T04:17:47.777Z,5.09
2018-11-26T04:20:16.903Z,5.24
2018-11-26T04:22:46.516Z,5.29
2018-11-26T04:25:15.927Z,5.26
2018-11-26T04:27:45.570Z,5.18
2018-11-26T04:30:15.170Z,5.08
2018-11-26T04:32:44.607Z,5.29
2018-11-26T04:35:13.651Z,5.30
2018-11-26T04:37:42.774Z,5.23
2018-11-26T04:40:11.943Z,5.39
2018-11-26T04:42:41.094Z,5.40
2018-11-26T04:45:10.808Z,5.41
2018-11-26T04:47:40.227Z,5.49
2018-11-26T04:50:11.635Z,5.46
2018-11-26T04:52:40.533Z,5.37
2018-11-26T04:55:12.166Z,5.30
2018-11-26T04:57:42.788Z,5.42
2018-11-26T05:00:13.297Z,5.25
2018-11-26T05:02:42.053Z,5.35
2018-11-26T05:05:11.973Z,5.29
2018-11-26T05:07:40.985Z,5.31
2018-11-26T05:10:11.290Z,5.31
2018-11-26T05:12:40.348Z,5.38
2018-11-26T05:15:13.402Z,5.38
2018-11-26T05:17:42.485Z,5.47
2018-11-26T05:20:12.242Z,5.46
2018-11-26T05:22:40.955Z,5.38
2018-11-26T05:25:11.767Z,5.19
2018-11-26T05:27:40.838Z,5.05
2018-11-26T05:30:14.069Z,4.89
2018-11-26T05:32:43.752Z,4.80
2018-11-26T05:35:13.231Z,4.86
2018-11-26T05:37:42.722Z,4.81
2018-11-26T05:40:13.725Z,4.94
2018-11-26T05:42:43.291Z,5.12
2018-11-26T05:45:14.537Z,5.09
2018-11-26T05:47:43.612Z,5.15
2018-11-26T05:50:16.055Z,5.33
2018-11-26T05:52:45.730Z,5.23
2018-11-26T05:55:16.697Z,5.19
2018-11-26T05:57:46.387Z,5.30
2018-11-26T06:00:44.239Z,5.32
2018-11-26T06:03:13.760Z,5.38
2018-11-26T06:05:42.703Z,5.09
2018-11-26T06:08:11.353Z,5.12
2018-11-26T06:10:41.184Z,5.15
2018-11-26T06:13:09.831Z,5.20
2018-11-26T06:15:39.230Z,5.11
2018-11-26T06:18:08.281Z,5.15
2018-11-26T06:20:37.452Z,5.11
2018-11-26T06:23:06.994Z,4.99
2018-11-26T06:25:35.816Z,4.99
2018-11-26T06:28:05.410Z,4.83
2018-11-26T06:30:34.932Z,4.85
2018-11-26T06:33:04.424Z,4.88
2018-11-26T06:35:33.875Z,4.90
2018-11-26T06:38:03.582Z,4.94
2018-11-26T06:40:32.668Z,5.15
2018-11-26T06:43:05.234Z,5.19
2018-11-26T06:45:34.761Z,5.20
2018-11-26T06:48:04.588Z,5.09
2018-11-26T06:50:34.684Z,5.14
2018-11-26T06:53:03.766Z,5.24
2018-11-26T06:55:32.957Z,5.19
2018-11-26T06:58:06.566Z,5.28
2018-11-26T07:00:36.222Z,5.19
2018-11-26T07:03:05.923Z,5.09
2018-11-26T07:05:35.655Z,5.37
2018-11-26T07:08:04.797Z,5.38
2018-11-26T07:10:34.925Z,5.24
2018-11-26T07:13:03.940Z,5.25
2018-11-26T07:15:32.951Z,5.23
2018-11-26T07:18:02.108Z,5.33
2018-11-26T07:20:31.598Z,5.25
2018-11-26T07:23:00.602Z,5.27
2018-11-26T07:25:30.094Z,5.37
2018-11-26T07:27:59.167Z,5.36
2018-11-26T07:30:29.841Z,5.36
2018-11-26T07:33:01.777Z,5.30
2018-11-26T07:35:32.385Z,5.45
2018-11-26T07:38:01.434Z,5.51
2018-11-26T07:40:30.778Z,5.40
2018-11-26T07:43:10.421Z,5.65
2018-11-26T07:45:39.963Z,5.54
2018-11-26T07:48:10.187Z,5.48
2018-11-26T07:50:39.235Z,5.63
2018-11-26T07:53:09.547Z,5.52
2018-11-26T07:55:39.577Z,5.74
2018-11-26T07:58:08.612Z,5.58
2018-11-26T08:00:38.582Z,5.68
2018-11-26T08:03:07.865Z,5.83
2018-11-26T08:05:36.902Z,5.77
2018-11-26T08:08:06.054Z,5.83
2018-11-26T08:10:35.458Z,5.75
2018-11-26T08:13:04.539Z,5.91
2018-11-26T08:15:33.579Z,5.86
2018-11-26T08:18:07.179Z,5.90
2018-11-26T08:20:35.882Z,6.03
2018-11-26T08:23:05.137Z,6.08
2018-11-26T08:25:33.907Z,6.31
2018-11-26T08:28:02.886Z,6.38
2018-11-26T08:30:31.963Z,6.53
2018-11-26T08:33:01.869Z,6.49
2018-11-26T08:35:31.863Z,6.94
2018-11-26T08:38:18.561Z,6.92
2018-11-26T08:41:05.171Z,6.77
2018-11-26T08:43:35.137Z,6.70
2018-11-26T08:46:10.307Z,6.48
2018-11-26T08:48:57.670Z,6.16
2018-11-26T08:51:27.103Z,6.19
2018-11-26T08:53:55.811Z,6.24
2018-11-26T08:56:24.575Z,6.49
2018-11-26T08:58:54.044Z,6.60
2018-11-26T09:01:42.736Z,6.83
2018-11-26T09:04:24.015Z,6.50
2018-11-26T09:06:53.806Z,6.45
2018-11-26T09:09:23.282Z,6.32
2018-11-26T09:11:52.373Z,6.28
2018-11-26T09:14:21.472Z,6.25
2018-11-26T09:16:50.919Z,6.21
2018-11-26T09:19:20.559Z,6.23
2018-11-26T09:21:49.341Z,6.04
2018-11-26T09:24:18.442Z,6.10
2018-11-26T09:26:47.469Z,6.05
2018-11-26T09:29:16.532Z,5.86
2018-11-26T09:31:45.989Z,5.86
2018-11-26T09:34:15.706Z,6.07
2018-11-26T09:36:45.191Z,6.18
2018-11-26T09:39:14.369Z,6.07
2018-11-26T09:41:43.643Z,6.09
2018-11-26T09:44:13.057Z,6.07
2018-11-26T09:46:42.491Z,6.13
2018-11-26T09:49:11.547Z,6.00
2018-11-26T09:51:42.231Z,5.74
2018-11-26T09:54:10.670Z,5.93
2018-11-26T09:56:39.370Z,5.81
2018-11-26T09:59:08.442Z,6.03
2018-11-26T10:01:37.473Z,6.14
2018-11-26T10:04:06.819Z,6.09
2018-11-26T10:06:37.137Z,6.13
2018-11-26T10:09:09.369Z,6.43
2018-11-26T10:11:38.418Z,6.81
2018-11-26T10:14:08.663Z,6.90
2018-11-26T10:16:38.057Z,6.46
2018-11-26T10:19:06.746Z,6.47
2018-11-26T10:21:36.252Z,6.25
2018-11-26T10:24:06.557Z,6.54
2018-11-26T10:26:37.310Z,6.97
2018-11-26T10:29:06.022Z,7.22
2018-11-26T10:31:35.970Z,7.27
2018-11-26T10:34:05.051Z,7.14
2018-11-26T10:36:34.674Z,6.54
2018-11-26T10:39:04.605Z,6.54
2018-11-26T10:41:34.676Z,6.56
2018-11-26T10:44:03.777Z,6.68
2018-11-26T10:46:32.490Z,6.82
2018-11-26T10:49:01.545Z,6.74
2018-11-26T10:51:30.765Z,6.92
2018-11-26T10:54:00.220Z,7.00
2018-11-26T10:56:30.243Z,7.23
2018-11-26T10:58:59.965Z,7.62
2018-11-26T11:01:47.628Z,7.57
2018-11-26T11:04:16.727Z,7.60
2018-11-26T11:06:47.890Z,7.72
2018-11-26T11:09:22.834Z,7.69
2018-11-26T11:11:52.484Z,7.61
2018-11-26T11:14:21.176Z,7.06
2018-11-26T11:16:51.783Z,6.65
2018-11-26T11:19:21.232Z,6.58
2018-11-26T11:21:50.487Z,6.55
2018-11-26T11:24:20.246Z,6.44
2018-11-26T11:26:49.318Z,6.03
2018-11-26T11:29:18.712Z,6.21
2018-11-26T11:31:47.413Z,5.99
2018-11-26T11:34:16.157Z,6.09
2018-11-26T11:36:45.261Z,6.26
2018-11-26T11:39:13.958Z,6.20
2018-11-26T11:41:43.033Z,6.11
2018-11-26T11:44:12.013Z,6.35
2018-11-26T11:46:40.734Z,6.28
2018-11-26T11:49:09.414Z,6.41
2018-11-26T11:51:38.128Z,6.31
2018-11-26T11:54:07.078Z,6.77
2018-11-26T11:56:36.191Z,7.27
2018-11-26T11:59:05.658Z,7.47
2018-11-26T12:01:34.676Z,7.59
2018-11-26T12:04:04.289Z,7.65
2018-11-26T12:06:33.375Z,7.42
2018-11-26T12:09:03.991Z,7.03
2018-11-26T12:11:33.611Z,6.96
2018-11-26T12:14:02.682Z,6.96
2018-11-26T12:16:31.741Z,7.00
2018-11-26T12:19:00.783Z,7.23
2018-11-26T12:21:29.790Z,7.14
2018-11-26T12:23:58.777Z,6.83
2018-11-26T12:26:27.878Z,6.68
2018-11-26T12:28:56.577Z,6.72
2018-11-26T12:31:25.967Z,6.84
2018-11-26T12:33:54.944Z,6.69
2018-11-26T12:36:24.366Z,6.90
2018-11-26T12:38:53.444Z,6.70
2018-11-26T12:41:22.451Z,6.78
2018-11-26T12:43:51.154Z,6.68
2018-11-26T12:46:20.235Z,6.77
2018-11-26T12:48:49.275Z,6.83
2018-11-26T12:51:18.678Z,6.70
2018-11-26T12:53:47.646Z,6.86
2018-11-26T12:56:17.353Z,6.90
2018-11-26T12:58:47.063Z,6.97
2018-11-26T13:01:16.469Z,7.02
2018-11-26T13:03:47.518Z,6.86
2018-11-26T13:06:18.286Z,6.99
2018-11-26T13:08:47.922Z,6.92
2018-11-26T13:11:18.191Z,6.73
2018-11-26T13:13:46.960Z,6.76
2018-11-26T13:16:15.915Z,7.13
2018-11-26T13:18:44.616Z,6.73
2018-11-26T13:21:13.782Z,6.52
2018-11-26T13:23:43.468Z,6.87
2018-11-26T13:26:12.171Z,6.80
2018-11-26T13:28:40.912Z,6.54
2018-11-26T13:31:09.641Z,6.54
2018-11-26T13:33:38.361Z,6.68
2018-11-26T13:36:07.988Z,6.50
2018-11-26T13:38:37.063Z,6.62
2018-11-26T13:41:05.768Z,6.60
2018-11-26T13:43:34.868Z,6.39
2018-11-26T13:46:03.938Z,6.49
2018-11-26T13:48:32.779Z,6.36
2018-11-26T13:51:01.698Z,6.52
2018-11-26T13:53:30.706Z,6.44
2018-11-26T13:55:59.712Z,6.36
2018-11-26T13:58:28.829Z,6.23
2018-11-26T14:00:58.671Z,6.30
2018-11-26T14:03:28.047Z,6.22
2018-11-26T14:05:57.760Z,6.27
2018-11-26T14:08:28.550Z,6.17
2018-11-26T14:10:58.155Z,6.18
2018-11-26T14:13:27.192Z,6.28
2018-11-26T14:15:55.922Z,6.31
2018-11-26T14:18:24.936Z,6.30
2018-11-26T14:20:54.072Z,6.43
2018-11-26T14:23:28.245Z,6.43
2018-11-26T14:25:58.314Z,6.36
2018-11-26T14:28:27.897Z,6.21
2018-11-26T14:30:58.336Z,6.32
2018-11-26T14:33:27.673Z,6.23
2018-11-26T14:35:56.734Z,6.21
2018-11-26T14:38:26.135Z,6.11
2018-11-26T14:40:55.442Z,6.04
2018-11-26T14:43:24.423Z,6.01
2018-11-26T14:45:54.031Z,5.96
2018-11-26T14:48:24.305Z,5.87
2018-11-26T14:50:53.923Z,6.05
2018-11-26T14:53:23.264Z,5.89
2018-11-26T14:55:52.199Z,5.68
2018-11-26T14:58:21.560Z,5.64
2018-11-26T15:00:50.879Z,5.65
2018-11-26T15:03:19.951Z,5.53
2018-11-26T15:05:49.823Z,5.61
2018-11-26T15:08:19.995Z,5.59
2018-11-26T15:10:50.824Z,5.79
2018-11-26T15:13:20.545Z,5.73
2018-11-26T15:15:51.018Z,5.68
2018-11-26T15:18:20.433Z,5.85
2018-11-26T15:20:50.165Z,5.91
2018-11-26T15:23:19.844Z,5.83
2018-11-26T15:25:49.591Z,5.89
2018-11-26T15:28:19.298Z,5.81
2018-11-26T15:30:49.141Z,5.86
2018-11-26T15:33:18.432Z,5.97
2018-11-26T15:35:47.120Z,5.93
2018-11-26T15:38:16.420Z,5.89
2018-11-26T15:40:46.112Z,6.11
2018-11-26T15:43:16.286Z,5.94
2018-11-26T15:45:46.138Z,6.00
2018-11-26T15:48:15.756Z,6.01
2018-11-26T15:50:45.112Z,5.77
2018-11-26T15:53:14.454Z,5.83
2018-11-26T15:55:43.856Z,5.96
2018-11-26T15:58:13.170Z,5.82
2018-11-26T16:00:42.715Z,5.87
2018-11-26T16:03:12.436Z,5.93
2018-11-26T16:05:42.825Z,5.96
2018-11-26T16:08:14.143Z,6.02
2018-11-26T16:10:43.887Z,6.02
2018-11-26T16:13:14.462Z,5.99
2018-11-26T16:15:44.292Z,5.97
2018-11-26T16:18:16.245Z,6.03
2018-11-26T16:20:45.606Z,6.00
2018-11-26T16:23:14.336Z,5.98
2018-11-26T16:25:44.347Z,6.04
2018-11-26T16:28:15.348Z,6.02
2018-11-26T16:30:44.042Z,6.04
2018-11-26T16:33:13.075Z,6.05
2018-11-26T16:35:42.229Z,5.89
2018-11-26T16:38:11.759Z,5.93
2018-11-26T16:40:41.495Z,5.95
2018-11-26T16:43:10.373Z,5.83
2018-11-26T16:45:39.460Z,5.85
2018-11-26T16:48:10.624Z,6.02
2018-11-26T16:50:39.343Z,5.95
2018-11-26T16:53:08.284Z,5.95
2018-11-26T16:55:37.039Z,5.84
2018-11-26T16:58:06.244Z,5.89
2018-11-26T17:00:35.369Z,5.81
2018-11-26T17:03:05.852Z,5.81
2018-11-26T17:05:39.262Z,5.99
2018-11-26T17:08:15.740Z,5.85
2018-11-26T17:10:45.091Z,5.78
2018-11-26T17:13:14.610Z,5.74
2018-11-26T17:15:43.474Z,5.85
2018-11-26T17:18:12.193Z,5.97
2018-11-26T17:20:40.922Z,5.95
2018-11-26T17:23:09.934Z,5.81
2018-11-26T17:25:39.108Z,5.76
2018-11-26T17:28:08.441Z,5.87
2018-11-26T17:30:38.247Z,6.01
2018-11-26T17:33:09.767Z,5.94
2018-11-26T17:35:38.519Z,5.92
2018-11-26T17:38:08.571Z,5.74
2018-11-26T17:40:40.035Z,5.87
2018-11-26T17:43:10.353Z,5.93
2018-11-26T17:45:39.086Z,5.75
2018-11-26T17:48:08.691Z,5.84
2018-11-26T17:50:41.505Z,5.91
2018-11-26T17:53:21.065Z,5.83
2018-11-26T17:55:54.031Z,5.71
2018-11-26T17:58:32.394Z,5.57
2018-11-26T18:01:28.221Z,5.53
2018-11-26T18:03:57.823Z,5.62
2018-11-26T18:06:26.919Z,5.60
2018-11-26T18:08:55.614Z,5.55
2018-11-26T18:11:24.314Z,5.50
2018-11-26T18:13:53.387Z,5.72
2018-11-26T18:16:23.365Z,5.57
2018-11-26T18:18:52.675Z,5.71
2018-11-26T18:21:22.119Z,5.48
2018-11-26T18:23:51.507Z,5.75
2018-11-26T18:26:20.975Z,5.51
2018-11-26T18:28:50.516Z,5.70
2018-11-26T18:31:19.519Z,5.41
2018-11-26T18:33:49.203Z,5.59
2018-11-26T18:36:18.235Z,5.54
2018-11-26T18:38:47.715Z,5.49
2018-11-26T18:41:17.015Z,5.47
2018-11-26T18:43:45.950Z,5.27
2018-11-26T18:46:14.967Z,5.27
2018-11-26T18:48:43.757Z,5.35
2018-11-26T18:51:12.895Z,5.46
2018-11-26T18:53:42.976Z,5.40
2018-11-26T18:56:12.127Z,5.51
2018-11-26T18:58:41.179Z,5.41
2018-11-26T19:01:10.932Z,5.48
2018-11-26T19:03:40.019Z,5.42
2018-11-26T19:06:09.180Z,5.48
2018-11-26T19:08:38.592Z,5.50
2018-11-26T19:11:13.455Z,5.37
2018-11-26T19:14:02.872Z,5.37
2018-11-26T19:16:40.218Z,5.39
2018-11-26T19:19:12.031Z,5.42
2018-11-26T19:21:43.339Z,5.40
2018-11-26T19:24:12.402Z,5.31
2018-11-26T19:26:41.490Z,5.19
2018-11-26T19:29:10.540Z,5.27
2018-11-26T19:31:39.258Z,5.35
2018-11-26T19:34:08.844Z,5.08
2018-11-26T19:36:37.551Z,5.17
2018-11-26T19:39:09.355Z,5.33
2018-11-26T19:41:39.437Z,5.23
2018-11-26T19:44:08.498Z,5.14
2018-11-26T19:46:37.323Z,5.28
2018-11-26T19:49:06.204Z,5.33
2018-11-26T19:51:35.625Z,5.38
2018-11-26T19:54:09.211Z,5.40
2018-11-26T19:56:38.292Z,5.17
2018-11-26T19:59:07.851Z,5.15
2018-11-26T20:01:37.505Z,5.02
2018-11-26T20:04:30.972Z,5.13
2018-11-26T20:07:00.600Z,5.08
2018-11-26T20:09:30.611Z,5.09
2018-11-26T20:11:59.336Z,5.05
2018-11-26T20:14:28.700Z,5.24
2018-11-26T20:16:57.775Z,5.21
2018-11-26T20:19:27.780Z,5.24
2018-11-26T20:21:57.049Z,5.17
2018-11-26T20:24:26.200Z,5.20
2018-11-26T20:26:56.185Z,5.03
2018-11-26T20:29:26.197Z,5.07
2018-11-26T20:31:55.241Z,5.13
2018-11-26T20:34:24.903Z,5.21
2018-11-26T20:36:54.632Z,5.07
2018-11-26T20:39:25.905Z,5.04
2018-11-26T20:41:56.577Z,5.06
2018-11-26T20:44:27.555Z,5.07
2018-11-26T20:46:56.643Z,4.89
2018-11-26T20:49:26.655Z,5.14
2018-11-26T20:51:58.338Z,5.06
2018-11-26T20:54:31.212Z,4.97
2018-11-26T20:57:00.610Z,4.93
2018-11-26T20:59:40.834Z,4.95
2018-11-26T21:02:10.579Z,4.97
2018-11-26T21:04:39.296Z,4.97
2018-11-26T21:07:08.031Z,4.94
2018-11-26T21:09:37.502Z,4.90
2018-11-26T21:12:06.252Z,4.97
2018-11-26T21:14:35.510Z,4.93
2018-11-26T21:17:05.062Z,4.93
2018-11-26T21:19:42.914Z,4.99
2018-11-26T21:22:12.150Z,4.90
2018-11-26T21:24:41.552Z,4.86
2018-11-26T21:27:12.467Z,4.80
2018-11-26T21:29:41.635Z,4.92
2018-11-26T21:32:10.695Z,4.82
2018-11-26T21:34:40.199Z,5.01
2018-11-26T21:37:10.948Z,4.84
2018-11-26T21:39:40.947Z,4.72
2018-11-26T21:42:09.672Z,4.70
2018-11-26T21:44:39.103Z,4.93
2018-11-26T21:47:07.836Z,4.70
2018-11-26T21:49:42.044Z,4.81
2018-11-26T21:52:12.244Z,4.87
2018-11-26T21:54:42.238Z,4.90
2018-11-26T21:57:11.355Z,4.81
2018-11-26T21:59:45.477Z,4.81
2018-11-26T22:02:14.663Z,4.77
2018-11-26T22:04:44.906Z,4.75
2018-11-26T22:07:16.270Z,4.79
2018-11-26T22:09:45.342Z,4.71
2018-11-26T22:12:16.002Z,4.65
2018-11-26T22:14:45.039Z,4.37
2018-11-26T22:17:14.292Z,4.39
2018-11-26T22:19:43.335Z,4.27
2018-11-26T22:22:12.079Z,4.44
2018-11-26T22:24:40.814Z,4.26
2018-11-26T22:27:10.390Z,4.39
2018-11-26T22:29:39.115Z,4.27
2018-11-26T22:32:08.207Z,4.28
2018-11-26T22:34:36.919Z,4.23
2018-11-26T22:37:06.404Z,4.28
2018-11-26T22:39:35.383Z,4.37
2018-11-26T22:42:04.654Z,4.40
2018-11-26T22:44:33.679Z,4.33
2018-11-26T22:47:03.007Z,4.51
2018-11-26T22:49:32.084Z,4.39
2018-11-26T22:52:01.434Z,4.43
2018-11-26T22:54:32.239Z,4.49
2018-11-26T22:57:07.217Z,4.44
2018-11-26T22:59:36.802Z,4.47
2018-11-26T23:02:06.223Z,4.57
2018-11-26T23:04:36.608Z,4.45
2018-11-26T23:07:05.691Z,4.42
2018-11-26T23:09:37.051Z,4.52
2018-11-26T23:12:05.756Z,4.33
2018-11-26T23:14:35.353Z,4.30
2018-11-26T23:17:05.771Z,4.26
2018-11-26T23:19:35.737Z,4.26
2018-11-26T23:22:05.326Z,4.36
2018-11-26T23:24:34.583Z,4.30
2018-11-26T23:27:04.490Z,4.24
2018-11-26T23:29:34.968Z,4.32
2018-11-26T23:32:04.334Z,4.33
2018-11-26T23:34:34.044Z,4.42
2018-11-26T23:37:03.175Z,4.18
2018-11-26T23:39:31.987Z,4.24
2018-11-26T23:42:00.977Z,4.32
2018-11-26T23:44:29.777Z,4.37
2018-11-26T23:46:59.267Z,4.13
2018-11-26T23:49:28.002Z,4.35
2018-11-26T23:51:56.705Z,4.48
2018-11-26T23:54:25.757Z,4.45
2018-11-26T23:56:54.840Z,4.39
2018-11-26T23:59:23.838Z,4.36
